sensor_id;sensor_type;location;lat;lon;timestamp;pressure;altitude;pressure_sealevel;temperature;humidity
61205;BME280;47068;55.780;37.520;2024-03-29T00:00:23;99148.81;;;6.33;52.21
61205;BME280;47068;55.780;37.520;2024-03-29T00:02:48;99162.38;;;6.38;51.83
61205;BME280;47068;55.780;37.520;2024-03-29T00:05:13;99142.09;;;6.39;52.27
61205;BME280;47068;55.780;37.520;2024-03-29T00:07:39;99148.97;;;6.49;51.93
61205;BME280;47068;55.780;37.520;2024-03-29T00:10:05;99157.78;;;6.58;51.58
61205;BME280;47068;55.780;37.520;2024-03-29T00:12:30;99152.41;;;6.67;51.43
61205;BME280;47068;55.780;37.520;2024-03-29T00:14:55;99163.22;;;6.74;51.24
61205;BME280;47068;55.780;37.520;2024-03-29T00:17:21;99142.91;;;6.75;51.41
61205;BME280;47068;55.780;37.520;2024-03-29T00:19:47;99126.09;;;6.40;51.24
61205;BME280;47068;55.780;37.520;2024-03-29T00:22:12;99148.97;;;6.49;52.21
61205;BME280;47068;55.780;37.520;2024-03-29T00:24:38;99141.38;;;6.37;52.61
61205;BME280;47068;55.780;37.520;2024-03-29T00:27:03;99137.34;;;6.42;52.38
61205;BME280;47068;55.780;37.520;2024-03-29T00:29:29;99131.97;;;6.52;52.34
61205;BME280;47068;55.780;37.520;2024-03-29T00:31:55;99125.44;;;6.64;51.91
61205;BME280;47068;55.780;37.520;2024-03-29T00:34:20;99123.97;;;6.61;52.01
61205;BME280;47068;55.780;37.520;2024-03-29T00:36:46;99128.88;;;6.56;52.41
61205;BME280;47068;55.780;37.520;2024-03-29T00:39:12;99116.03;;;6.61;52.08
61205;BME280;47068;55.780;37.520;2024-03-29T00:41:37;99121.81;;;6.65;51.77
61205;BME280;47068;55.780;37.520;2024-03-29T00:44:03;99124.19;;;6.50;52.73
61205;BME280;47068;55.780;37.520;2024-03-29T00:46:28;99123.38;;;6.50;52.44
61205;BME280;47068;55.780;37.520;2024-03-29T00:48:54;99119.00;;;6.41;52.93
61205;BME280;47068;55.780;37.520;2024-03-29T00:51:21;99104.41;;;6.37;53.49
61205;BME280;47068;55.780;37.520;2024-03-29T00:53:46;99110.91;;;6.42;52.67
61205;BME280;47068;55.780;37.520;2024-03-29T00:56:11;99091.50;;;6.51;52.92
61205;BME280;47068;55.780;37.520;2024-03-29T00:58:37;99098.28;;;6.54;52.58
61205;BME280;47068;55.780;37.520;2024-03-29T01:01:02;99097.25;;;6.47;52.67
61205;BME280;47068;55.780;37.520;2024-03-29T01:03:28;99094.44;;;6.48;52.70
61205;BME280;47068;55.780;37.520;2024-03-29T01:05:56;99086.31;;;6.42;52.60
61205;BME280;47068;55.780;37.520;2024-03-29T01:08:21;99091.81;;;6.48;52.41
61205;BME280;47068;55.780;37.520;2024-03-29T01:10:48;99089.47;;;6.45;53.18
61205;BME280;47068;55.780;37.520;2024-03-29T01:13:14;99081.84;;;6.42;52.98
61205;BME280;47068;55.780;37.520;2024-03-29T01:15:39;99090.50;;;6.52;53.19
61205;BME280;47068;55.780;37.520;2024-03-29T01:18:05;99072.16;;;6.51;52.96
61205;BME280;47068;55.780;37.520;2024-03-29T01:20:30;99062.41;;;6.51;52.82
61205;BME280;47068;55.780;37.520;2024-03-29T01:22:56;99075.41;;;6.62;52.70
61205;BME280;47068;55.780;37.520;2024-03-29T01:25:21;99072.09;;;6.60;52.70
61205;BME280;47068;55.780;37.520;2024-03-29T01:27:47;99072.00;;;6.52;52.53
61205;BME280;47068;55.780;37.520;2024-03-29T01:30:12;99051.13;;;6.41;53.34
61205;BME280;47068;55.780;37.520;2024-03-29T01:32:39;99064.19;;;6.43;53.63
61205;BME280;47068;55.780;37.520;2024-03-29T01:35:04;99058.69;;;6.36;53.55
61205;BME280;47068;55.780;37.520;2024-03-29T01:37:30;99050.38;;;6.31;54.14
61205;BME280;47068;55.780;37.520;2024-03-29T01:39:56;99049.94;;;6.36;54.13
61205;BME280;47068;55.780;37.520;2024-03-29T01:42:21;99048.63;;;6.40;53.87
61205;BME280;47068;55.780;37.520;2024-03-29T01:44:47;99038.34;;;6.37;54.08
61205;BME280;47068;55.780;37.520;2024-03-29T01:47:12;99037.56;;;6.36;54.36
61205;BME280;47068;55.780;37.520;2024-03-29T01:49:39;99035.34;;;6.31;54.49
61205;BME280;47068;55.780;37.520;2024-03-29T01:52:05;99024.63;;;6.33;54.69
61205;BME280;47068;55.780;37.520;2024-03-29T01:54:31;99028.84;;;6.44;54.31
61205;BME280;47068;55.780;37.520;2024-03-29T01:56:57;99027.72;;;6.46;54.04
61205;BME280;47068;55.780;37.520;2024-03-29T01:59:23;99020.06;;;6.43;54.22
61205;BME280;47068;55.780;37.520;2024-03-29T02:01:50;99007.81;;;6.34;54.62
61205;BME280;47068;55.780;37.520;2024-03-29T02:04:16;99012.16;;;6.43;54.53
61205;BME280;47068;55.780;37.520;2024-03-29T02:06:42;99006.56;;;6.46;54.77
61205;BME280;47068;55.780;37.520;2024-03-29T02:09:07;99011.84;;;6.46;54.43
61205;BME280;47068;55.780;37.520;2024-03-29T02:11:34;99007.41;;;6.47;54.30
61205;BME280;47068;55.780;37.520;2024-03-29T02:14:00;99008.03;;;6.41;54.76
61205;BME280;47068;55.780;37.520;2024-03-29T02:16:26;99003.22;;;6.36;54.59
61205;BME280;47068;55.780;37.520;2024-03-29T02:18:51;98997.31;;;6.42;55.15
61205;BME280;47068;55.780;37.520;2024-03-29T02:21:16;98996.00;;;6.46;54.91
61205;BME280;47068;55.780;37.520;2024-03-29T02:23:47;98964.84;;;6.32;54.42
61205;BME280;47068;55.780;37.520;2024-03-29T02:26:12;98989.66;;;6.57;54.80
61205;BME280;47068;55.780;37.520;2024-03-29T02:28:38;98985.28;;;6.73;53.81
61205;BME280;47068;55.780;37.520;2024-03-29T02:31:04;98976.63;;;6.63;54.60
61205;BME280;47068;55.780;37.520;2024-03-29T02:33:30;98979.84;;;6.49;54.53
61205;BME280;47068;55.780;37.520;2024-03-29T02:35:55;98978.84;;;6.50;54.73
61205;BME280;47068;55.780;37.520;2024-03-29T02:38:21;98953.94;;;6.27;54.94
61205;BME280;47068;55.780;37.520;2024-03-29T02:40:46;98967.72;;;6.39;55.41
61205;BME280;47068;55.780;37.520;2024-03-29T02:43:12;98956.88;;;6.24;55.44
61205;BME280;47068;55.780;37.520;2024-03-29T02:45:37;98946.16;;;6.25;55.16
61205;BME280;47068;55.780;37.520;2024-03-29T02:48:03;98957.97;;;6.39;55.40
61205;BME280;47068;55.780;37.520;2024-03-29T02:50:28;98971.94;;;6.57;55.18
61205;BME280;47068;55.780;37.520;2024-03-29T02:52:54;98963.97;;;6.75;54.74
61205;BME280;47068;55.780;37.520;2024-03-29T02:55:19;98957.69;;;6.76;54.10
61205;BME280;47068;55.780;37.520;2024-03-29T02:57:45;98972.06;;;6.73;54.06
61205;BME280;47068;55.780;37.520;2024-03-29T03:00:11;98962.53;;;6.55;54.52
61205;BME280;47068;55.780;37.520;2024-03-29T03:02:39;98962.06;;;6.59;54.46
61205;BME280;47068;55.780;37.520;2024-03-29T03:05:06;98940.56;;;6.54;54.51
61205;BME280;47068;55.780;37.520;2024-03-29T03:07:32;98949.69;;;6.60;54.91
61205;BME280;47068;55.780;37.520;2024-03-29T03:10:16;98929.66;;;6.49;54.75
61205;BME280;47068;55.780;37.520;2024-03-29T03:13:00;98930.22;;;6.35;55.65
61205;BME280;47068;55.780;37.520;2024-03-29T03:15:25;98931.56;;;6.39;55.53
61205;BME280;47068;55.780;37.520;2024-03-29T03:17:51;98931.25;;;6.42;55.44
61205;BME280;47068;55.780;37.520;2024-03-29T03:20:16;98925.63;;;6.45;55.39
61205;BME280;47068;55.780;37.520;2024-03-29T03:22:42;98925.63;;;6.45;55.14
61205;BME280;47068;55.780;37.520;2024-03-29T03:25:08;98926.59;;;6.36;55.61
61205;BME280;47068;55.780;37.520;2024-03-29T03:27:33;98925.22;;;6.32;55.35
61205;BME280;47068;55.780;37.520;2024-03-29T03:29:59;98930.84;;;6.29;55.79
61205;BME280;47068;55.780;37.520;2024-03-29T03:32:24;98915.78;;;6.29;55.73
61205;BME280;47068;55.780;37.520;2024-03-29T03:34:50;98892.91;;;6.12;55.75
61205;BME280;47068;55.780;37.520;2024-03-29T03:37:15;98915.59;;;6.23;56.01
61205;BME280;47068;55.780;37.520;2024-03-29T03:39:41;98914.72;;;6.14;56.04
61205;BME280;47068;55.780;37.520;2024-03-29T03:42:06;98933.56;;;6.19;56.12
61205;BME280;47068;55.780;37.520;2024-03-29T03:44:32;98917.56;;;6.21;56.18
61205;BME280;47068;55.780;37.520;2024-03-29T03:46:57;98925.84;;;6.26;55.86
61205;BME280;47068;55.780;37.520;2024-03-29T03:49:22;98915.44;;;6.24;55.74
61205;BME280;47068;55.780;37.520;2024-03-29T03:51:48;98919.25;;;6.22;55.97
61205;BME280;47068;55.780;37.520;2024-03-29T03:54:14;98885.41;;;6.00;56.31
61205;BME280;47068;55.780;37.520;2024-03-29T03:56:39;98907.63;;;6.15;56.35
61205;BME280;47068;55.780;37.520;2024-03-29T03:59:05;98887.44;;;6.06;56.07
61205;BME280;47068;55.780;37.520;2024-03-29T04:01:30;98906.75;;;6.32;55.98
61205;BME280;47068;55.780;37.520;2024-03-29T04:03:56;98899.84;;;6.39;55.82
61205;BME280;47068;55.780;37.520;2024-03-29T04:06:21;98884.00;;;6.39;55.28
61205;BME280;47068;55.780;37.520;2024-03-29T04:08:47;98901.22;;;6.51;55.26
61205;BME280;47068;55.780;37.520;2024-03-29T04:11:12;98890.84;;;6.50;55.39
61205;BME280;47068;55.780;37.520;2024-03-29T04:13:38;98901.59;;;6.56;54.93
61205;BME280;47068;55.780;37.520;2024-03-29T04:16:06;98889.13;;;6.75;54.53
61205;BME280;47068;55.780;37.520;2024-03-29T04:18:32;98877.75;;;6.82;54.04
61205;BME280;47068;55.780;37.520;2024-03-29T04:20:58;98866.41;;;6.98;54.25
61205;BME280;47068;55.780;37.520;2024-03-29T04:23:25;98874.72;;;7.11;53.60
61205;BME280;47068;55.780;37.520;2024-03-29T04:25:55;98871.25;;;7.19;52.84
61205;BME280;47068;55.780;37.520;2024-03-29T04:28:21;98797.47;;;6.83;52.94
61205;BME280;47068;55.780;37.520;2024-03-29T04:31:00;98860.84;;;7.25;53.42
61205;BME280;47068;55.780;37.520;2024-03-29T04:33:26;98865.13;;;7.34;52.67
61205;BME280;47068;55.780;37.520;2024-03-29T04:35:59;98871.06;;;7.20;52.79
61205;BME280;47068;55.780;37.520;2024-03-29T04:38:26;98870.44;;;7.18;53.01
61205;BME280;47068;55.780;37.520;2024-03-29T04:40:53;98865.41;;;6.99;53.60
61205;BME280;47068;55.780;37.520;2024-03-29T04:43:21;98848.22;;;6.95;53.73
61205;BME280;47068;55.780;37.520;2024-03-29T04:45:47;98840.63;;;7.08;53.47
61205;BME280;47068;55.780;37.520;2024-03-29T04:48:13;98836.88;;;7.35;52.89
61205;BME280;47068;55.780;37.520;2024-03-29T04:50:38;98806.94;;;7.42;52.25
61205;BME280;47068;55.780;37.520;2024-03-29T04:53:04;98832.59;;;7.58;51.65
61205;BME280;47068;55.780;37.520;2024-03-29T04:55:30;98821.47;;;7.71;51.50
61205;BME280;47068;55.780;37.520;2024-03-29T04:57:55;98824.13;;;7.71;51.43
61205;BME280;47068;55.780;37.520;2024-03-29T05:00:21;98800.34;;;7.46;51.75
61205;BME280;47068;55.780;37.520;2024-03-29T05:02:46;98815.53;;;7.44;51.66
61205;BME280;47068;55.780;37.520;2024-03-29T05:05:12;98796.34;;;7.42;51.53
61205;BME280;47068;55.780;37.520;2024-03-29T05:07:37;98807.09;;;7.41;52.06
61205;BME280;47068;55.780;37.520;2024-03-29T05:10:03;98805.94;;;7.51;52.18
61205;BME280;47068;55.780;37.520;2024-03-29T05:12:32;98810.91;;;7.55;51.78
61205;BME280;47068;55.780;37.520;2024-03-29T05:14:57;98801.66;;;7.50;51.90
61205;BME280;47068;55.780;37.520;2024-03-29T05:17:23;98793.03;;;7.65;51.79
61205;BME280;47068;55.780;37.520;2024-03-29T05:19:54;98784.75;;;7.68;50.88
61205;BME280;47068;55.780;37.520;2024-03-29T05:22:20;98797.34;;;7.74;51.17
61205;BME280;47068;55.780;37.520;2024-03-29T05:24:46;98790.38;;;7.73;50.92
61205;BME280;47068;55.780;37.520;2024-03-29T05:27:12;98782.44;;;7.81;50.64
61205;BME280;47068;55.780;37.520;2024-03-29T05:29:38;98781.59;;;7.80;51.09
61205;BME280;47068;55.780;37.520;2024-03-29T05:32:04;98780.53;;;8.14;50.37
61205;BME280;47068;55.780;37.520;2024-03-29T05:34:30;98787.78;;;8.67;49.63
61205;BME280;47068;55.780;37.520;2024-03-29T05:36:55;98783.72;;;9.33;47.75
61205;BME280;47068;55.780;37.520;2024-03-29T05:39:21;98781.44;;;9.44;46.67
61205;BME280;47068;55.780;37.520;2024-03-29T05:41:47;98780.13;;;9.40;47.04
61205;BME280;47068;55.780;37.520;2024-03-29T05:44:13;98786.75;;;8.99;47.16
61205;BME280;47068;55.780;37.520;2024-03-29T05:46:38;98763.00;;;8.52;48.38
61205;BME280;47068;55.780;37.520;2024-03-29T05:49:05;98778.00;;;8.37;48.71
61205;BME280;47068;55.780;37.520;2024-03-29T05:51:31;98777.78;;;8.77;48.80
61205;BME280;47068;55.780;37.520;2024-03-29T05:53:57;98767.72;;;9.18;47.17
61205;BME280;47068;55.780;37.520;2024-03-29T05:56:22;98765.19;;;9.62;45.99
61205;BME280;47068;55.780;37.520;2024-03-29T05:58:48;98757.94;;;9.19;47.33
61205;BME280;47068;55.780;37.520;2024-03-29T06:01:13;98793.41;;;9.40;46.98
61205;BME280;47068;55.780;37.520;2024-03-29T06:03:39;98793.00;;;9.29;46.58
61205;BME280;47068;55.780;37.520;2024-03-29T06:06:04;98785.22;;;9.27;46.66
61205;BME280;47068;55.780;37.520;2024-03-29T06:08:30;98781.13;;;9.25;46.56
61205;BME280;47068;55.780;37.520;2024-03-29T06:10:56;98800.84;;;8.99;47.54
61205;BME280;47068;55.780;37.520;2024-03-29T06:13:22;98787.94;;;8.96;47.57
61205;BME280;47068;55.780;37.520;2024-03-29T06:16:06;98781.78;;;8.73;48.58
61205;BME280;47068;55.780;37.520;2024-03-29T06:18:50;98774.31;;;8.38;49.25
61205;BME280;47068;55.780;37.520;2024-03-29T06:21:16;98780.69;;;8.12;50.14
61205;BME280;47068;55.780;37.520;2024-03-29T06:23:41;98771.09;;;8.03;49.95
61205;BME280;47068;55.780;37.520;2024-03-29T06:26:06;98768.50;;;7.95;50.50
61205;BME280;47068;55.780;37.520;2024-03-29T06:28:32;98792.81;;;7.99;50.79
61205;BME280;47068;55.780;37.520;2024-03-29T06:30:58;98782.47;;;8.28;49.99
61205;BME280;47068;55.780;37.520;2024-03-29T06:33:25;98780.41;;;8.46;49.82
61205;BME280;47068;55.780;37.520;2024-03-29T06:35:54;98754.19;;;8.12;49.65
61205;BME280;47068;55.780;37.520;2024-03-29T06:38:20;98787.94;;;8.26;49.87
61205;BME280;47068;55.780;37.520;2024-03-29T06:40:46;98781.00;;;8.09;50.05
61205;BME280;47068;55.780;37.520;2024-03-29T06:43:11;98770.22;;;8.19;50.08
61205;BME280;47068;55.780;37.520;2024-03-29T06:45:41;98786.63;;;8.22;50.30
61205;BME280;47068;55.780;37.520;2024-03-29T06:48:09;98774.84;;;8.25;50.12
61205;BME280;47068;55.780;37.520;2024-03-29T06:50:35;98779.00;;;8.36;50.11
61205;BME280;47068;55.780;37.520;2024-03-29T06:53:01;98768.19;;;8.76;49.89
61205;BME280;47068;55.780;37.520;2024-03-29T06:55:26;98784.59;;;9.02;48.34
61205;BME280;47068;55.780;37.520;2024-03-29T06:57:52;98780.00;;;9.19;47.98
61205;BME280;47068;55.780;37.520;2024-03-29T07:00:17;98772.25;;;8.87;48.39
61205;BME280;47068;55.780;37.520;2024-03-29T07:02:43;98779.84;;;8.59;48.99
61205;BME280;47068;55.780;37.520;2024-03-29T07:05:09;98773.00;;;8.42;50.11
61205;BME280;47068;55.780;37.520;2024-03-29T07:07:37;98768.88;;;8.23;50.61
61205;BME280;47068;55.780;37.520;2024-03-29T07:10:03;98761.44;;;8.35;50.50
61205;BME280;47068;55.780;37.520;2024-03-29T07:12:28;98757.66;;;8.60;49.53
61205;BME280;47068;55.780;37.520;2024-03-29T07:14:54;98743.28;;;8.54;49.04
61205;BME280;47068;55.780;37.520;2024-03-29T07:17:20;98762.78;;;8.61;49.40
61205;BME280;47068;55.780;37.520;2024-03-29T07:19:45;98763.56;;;8.70;49.13
61205;BME280;47068;55.780;37.520;2024-03-29T07:22:11;98758.66;;;8.59;49.62
61205;BME280;47068;55.780;37.520;2024-03-29T07:24:37;98749.03;;;8.58;49.75
61205;BME280;47068;55.780;37.520;2024-03-29T07:27:02;98744.69;;;8.65;49.60
61205;BME280;47068;55.780;37.520;2024-03-29T07:29:28;98743.00;;;8.72;49.16
61205;BME280;47068;55.780;37.520;2024-03-29T07:31:53;98736.09;;;8.86;49.02
61205;BME280;47068;55.780;37.520;2024-03-29T07:34:19;98673.97;;;8.26;49.08
61205;BME280;47068;55.780;37.520;2024-03-29T07:36:45;98741.41;;;8.63;49.45
61205;BME280;47068;55.780;37.520;2024-03-29T07:39:11;98739.66;;;8.47;49.76
61205;BME280;47068;55.780;37.520;2024-03-29T07:41:37;98741.31;;;8.48;49.89
61205;BME280;47068;55.780;37.520;2024-03-29T07:44:02;98733.94;;;8.36;50.58
61205;BME280;47068;55.780;37.520;2024-03-29T07:46:35;98727.16;;;8.33;50.28
61205;BME280;47068;55.780;37.520;2024-03-29T07:49:02;98727.44;;;8.38;50.58
61205;BME280;47068;55.780;37.520;2024-03-29T07:51:28;98726.53;;;8.54;50.47
61205;BME280;47068;55.780;37.520;2024-03-29T07:53:54;98726.88;;;8.51;50.00
61205;BME280;47068;55.780;37.520;2024-03-29T07:56:19;98720.00;;;8.42;50.85
61205;BME280;47068;55.780;37.520;2024-03-29T07:58:49;98732.94;;;8.28;50.60
61205;BME280;47068;55.780;37.520;2024-03-29T08:01:19;98742.06;;;8.18;51.65
61205;BME280;47068;55.780;37.520;2024-03-29T08:03:45;98733.31;;;8.09;51.88
61205;BME280;47068;55.780;37.520;2024-03-29T08:06:11;98718.53;;;7.76;52.78
61205;BME280;47068;55.780;37.520;2024-03-29T08:08:36;98734.91;;;7.87;52.47
61205;BME280;47068;55.780;37.520;2024-03-29T08:11:02;98726.16;;;7.87;53.33
61205;BME280;47068;55.780;37.520;2024-03-29T08:13:27;98707.59;;;7.87;52.77
61205;BME280;47068;55.780;37.520;2024-03-29T08:16:00;98715.34;;;7.97;53.93
61205;BME280;47068;55.780;37.520;2024-03-29T08:18:26;98708.56;;;7.94;55.01
61205;BME280;47068;55.780;37.520;2024-03-29T08:20:52;98695.63;;;7.99;55.91
61205;BME280;47068;55.780;37.520;2024-03-29T08:23:17;98647.69;;;7.86;56.62
61205;BME280;47068;55.780;37.520;2024-03-29T08:25:43;98663.84;;;7.99;55.70
61205;BME280;47068;55.780;37.520;2024-03-29T08:28:09;98664.13;;;8.12;56.69
61205;BME280;47068;55.780;37.520;2024-03-29T08:30:36;98686.06;;;8.29;56.12
61205;BME280;47068;55.780;37.520;2024-03-29T08:33:02;98674.03;;;8.18;55.99
61205;BME280;47068;55.780;37.520;2024-03-29T08:35:28;98711.75;;;8.28;56.44
61205;BME280;47068;55.780;37.520;2024-03-29T08:37:53;98721.88;;;8.17;55.98
61205;BME280;47068;55.780;37.520;2024-03-29T08:40:19;98718.78;;;8.05;55.37
61205;BME280;47068;55.780;37.520;2024-03-29T08:42:44;98722.13;;;7.99;55.19
61205;BME280;47068;55.780;37.520;2024-03-29T08:45:10;98713.31;;;8.07;55.14
61205;BME280;47068;55.780;37.520;2024-03-29T08:47:37;98719.59;;;8.14;55.75
61205;BME280;47068;55.780;37.520;2024-03-29T08:50:02;98729.34;;;8.13;55.40
61205;BME280;47068;55.780;37.520;2024-03-29T08:52:30;98706.84;;;8.09;55.86
61205;BME280;47068;55.780;37.520;2024-03-29T08:54:55;98693.66;;;8.01;55.61
61205;BME280;47068;55.780;37.520;2024-03-29T08:57:21;98692.09;;;7.68;56.60
61205;BME280;47068;55.780;37.520;2024-03-29T08:59:46;98694.56;;;7.69;56.65
61205;BME280;47068;55.780;37.520;2024-03-29T09:02:12;98697.72;;;7.81;57.17
61205;BME280;47068;55.780;37.520;2024-03-29T09:04:38;98708.16;;;8.13;56.65
61205;BME280;47068;55.780;37.520;2024-03-29T09:07:03;98719.94;;;8.50;55.39
61205;BME280;47068;55.780;37.520;2024-03-29T09:09:29;98702.81;;;8.29;54.88
61205;BME280;47068;55.780;37.520;2024-03-29T09:11:55;98708.19;;;8.05;55.65
61205;BME280;47068;55.780;37.520;2024-03-29T09:14:21;98694.34;;;7.95;55.72
61205;BME280;47068;55.780;37.520;2024-03-29T09:16:46;98685.09;;;7.83;55.83
61205;BME280;47068;55.780;37.520;2024-03-29T09:19:13;98702.19;;;7.72;56.72
61205;BME280;47068;55.780;37.520;2024-03-29T09:21:39;98692.75;;;7.70;56.42
61205;BME280;47068;55.780;37.520;2024-03-29T09:24:05;98683.81;;;7.79;56.58
61205;BME280;47068;55.780;37.520;2024-03-29T09:26:31;98676.84;;;7.78;56.65
61205;BME280;47068;55.780;37.520;2024-03-29T09:28:56;98681.47;;;7.76;56.07
61205;BME280;47068;55.780;37.520;2024-03-29T09:31:22;98681.47;;;7.84;55.87
61205;BME280;47068;55.780;37.520;2024-03-29T09:33:48;98686.72;;;7.92;56.64
61205;BME280;47068;55.780;37.520;2024-03-29T09:36:20;98679.88;;;8.06;56.00
61205;BME280;47068;55.780;37.520;2024-03-29T09:38:46;98685.56;;;8.25;55.61
61205;BME280;47068;55.780;37.520;2024-03-29T09:41:17;98667.47;;;8.37;55.30
61205;BME280;47068;55.780;37.520;2024-03-29T09:43:45;98682.75;;;8.58;54.46
61205;BME280;47068;55.780;37.520;2024-03-29T09:46:14;98677.53;;;8.50;54.22
61205;BME280;47068;55.780;37.520;2024-03-29T09:48:41;98684.22;;;8.38;55.39
61205;BME280;47068;55.780;37.520;2024-03-29T09:51:08;98685.38;;;8.43;55.36
61205;BME280;47068;55.780;37.520;2024-03-29T09:53:35;98675.25;;;8.39;55.54
61205;BME280;47068;55.780;37.520;2024-03-29T09:56:05;98639.13;;;8.15;54.95
61205;BME280;47068;55.780;37.520;2024-03-29T09:58:34;98673.31;;;8.33;56.23
61205;BME280;47068;55.780;37.520;2024-03-29T10:01:02;98665.97;;;8.43;55.21
61205;BME280;47068;55.780;37.520;2024-03-29T10:03:29;98676.22;;;8.46;55.13
61205;BME280;47068;55.780;37.520;2024-03-29T10:05:59;98673.53;;;8.54;54.77
61205;BME280;47068;55.780;37.520;2024-03-29T10:08:26;98663.81;;;8.69;55.07
61205;BME280;47068;55.780;37.520;2024-03-29T10:10:54;98650.53;;;8.92;54.14
61205;BME280;47068;55.780;37.520;2024-03-29T10:13:19;98664.25;;;8.95;53.62
61205;BME280;47068;55.780;37.520;2024-03-29T10:15:46;98669.78;;;9.08;53.19
61205;BME280;47068;55.780;37.520;2024-03-29T10:18:15;98666.34;;;9.23;53.50
61205;BME280;47068;55.780;37.520;2024-03-29T10:20:41;98649.34;;;9.61;53.48
61205;BME280;47068;55.780;37.520;2024-03-29T10:23:06;98654.81;;;9.89;51.84
61205;BME280;47068;55.780;37.520;2024-03-29T10:25:33;98653.72;;;9.83;51.60
61205;BME280;47068;55.780;37.520;2024-03-29T10:27:59;98654.66;;;9.61;52.08
61205;BME280;47068;55.780;37.520;2024-03-29T10:30:27;98649.06;;;9.56;52.06
61205;BME280;47068;55.780;37.520;2024-03-29T10:32:52;98638.63;;;9.69;52.96
61205;BME280;47068;55.780;37.520;2024-03-29T10:35:20;98642.66;;;9.95;52.09
61205;BME280;47068;55.780;37.520;2024-03-29T10:37:45;98629.13;;;9.75;51.71
61205;BME280;47068;55.780;37.520;2024-03-29T10:40:11;98623.06;;;9.81;52.36
61205;BME280;47068;55.780;37.520;2024-03-29T10:42:41;98626.41;;;10.04;51.67
61205;BME280;47068;55.780;37.520;2024-03-29T10:45:07;98623.91;;;10.32;51.13
61205;BME280;47068;55.780;37.520;2024-03-29T10:47:34;98618.31;;;10.12;51.49
61205;BME280;47068;55.780;37.520;2024-03-29T10:50:00;98623.06;;;9.96;52.11
61205;BME280;47068;55.780;37.520;2024-03-29T10:52:26;98621.72;;;10.21;52.11
61205;BME280;47068;55.780;37.520;2024-03-29T10:54:53;98625.44;;;10.41;51.28
61205;BME280;47068;55.780;37.520;2024-03-29T10:57:22;98613.78;;;10.63;50.32
61205;BME280;47068;55.780;37.520;2024-03-29T10:59:58;98616.63;;;10.41;50.44
61205;BME280;47068;55.780;37.520;2024-03-29T11:05:12;98609.09;;;10.44;50.95
61205;BME280;47068;55.780;37.520;2024-03-29T11:07:40;98607.84;;;10.61;50.31
61205;BME280;47068;55.780;37.520;2024-03-29T11:10:13;98617.00;;;10.59;49.95
61205;BME280;47068;55.780;37.520;2024-03-29T11:13:29;98613.91;;;10.55;50.71
61205;BME280;47068;55.780;37.520;2024-03-29T11:15:51;98621.13;;;10.61;50.18
61205;BME280;47068;55.780;37.520;2024-03-29T11:18:18;98620.00;;;10.49;50.80
61205;BME280;47068;55.780;37.520;2024-03-29T11:20:46;98605.47;;;10.31;50.44
61205;BME280;47068;55.780;37.520;2024-03-29T11:23:17;98605.69;;;10.50;50.94
61205;BME280;47068;55.780;37.520;2024-03-29T11:25:45;98605.28;;;10.75;50.67
61205;BME280;47068;55.780;37.520;2024-03-29T11:28:13;98594.06;;;11.07;50.02
61205;BME280;47068;55.780;37.520;2024-03-29T11:30:49;98598.19;;;11.10;49.64
61205;BME280;47068;55.780;37.520;2024-03-29T11:33:27;98607.69;;;10.91;49.96
61205;BME280;47068;55.780;37.520;2024-03-29T11:35:55;98600.47;;;10.85;50.90
61205;BME280;47068;55.780;37.520;2024-03-29T11:38:21;98599.97;;;10.75;51.09
61205;BME280;47068;55.780;37.520;2024-03-29T11:41:01;98596.94;;;10.56;51.26
61205;BME280;47068;55.780;37.520;2024-03-29T11:43:27;98598.31;;;10.52;51.66
61205;BME280;47068;55.780;37.520;2024-03-29T11:45:54;98575.69;;;10.35;52.05
61205;BME280;47068;55.780;37.520;2024-03-29T11:48:25;98576.28;;;10.16;52.32
61205;BME280;47068;55.780;37.520;2024-03-29T11:50:52;98587.19;;;10.21;52.70
61205;BME280;47068;55.780;37.520;2024-03-29T11:53:18;98580.69;;;10.09;52.89
61205;BME280;47068;55.780;37.520;2024-03-29T11:55:44;98589.84;;;10.21;52.98
61205;BME280;47068;55.780;37.520;2024-03-29T11:58:09;98588.63;;;10.23;52.64
61205;BME280;47068;55.780;37.520;2024-03-29T12:00:35;98587.00;;;10.22;53.38
61205;BME280;47068;55.780;37.520;2024-03-29T12:03:01;98582.13;;;10.26;53.10
61205;BME280;47068;55.780;37.520;2024-03-29T12:05:27;98588.50;;;10.32;52.84
61205;BME280;47068;55.780;37.520;2024-03-29T12:07:52;98594.22;;;10.29;53.35
61205;BME280;47068;55.780;37.520;2024-03-29T12:10:18;98568.47;;;10.29;52.99
61205;BME280;47068;55.780;37.520;2024-03-29T12:12:44;98589.78;;;10.57;53.13
61205;BME280;47068;55.780;37.520;2024-03-29T12:15:09;98593.13;;;10.65;52.96
61205;BME280;47068;55.780;37.520;2024-03-29T12:17:35;98593.00;;;10.74;52.29
61205;BME280;47068;55.780;37.520;2024-03-29T12:20:04;98584.00;;;10.75;52.64
61205;BME280;47068;55.780;37.520;2024-03-29T12:22:36;98599.19;;;10.81;52.37
61205;BME280;47068;55.780;37.520;2024-03-29T12:25:02;98597.00;;;10.84;52.18
61205;BME280;47068;55.780;37.520;2024-03-29T12:27:27;98614.66;;;10.92;52.06
61205;BME280;47068;55.780;37.520;2024-03-29T12:29:53;98609.19;;;11.00;52.01
61205;BME280;47068;55.780;37.520;2024-03-29T12:32:19;98610.03;;;11.07;52.08
61205;BME280;47068;55.780;37.520;2024-03-29T12:34:45;98595.13;;;11.06;51.78
61205;BME280;47068;55.780;37.520;2024-03-29T12:37:11;98597.88;;;11.19;51.62
61205;BME280;47068;55.780;37.520;2024-03-29T12:39:37;98591.34;;;11.28;51.74
61205;BME280;47068;55.780;37.520;2024-03-29T12:42:05;98586.25;;;11.27;51.33
61205;BME280;47068;55.780;37.520;2024-03-29T12:44:30;98596.81;;;11.20;51.19
61205;BME280;47068;55.780;37.520;2024-03-29T12:46:58;98581.19;;;11.04;51.96
61205;BME280;47068;55.780;37.520;2024-03-29T12:49:26;98592.47;;;11.06;51.99
61205;BME280;47068;55.780;37.520;2024-03-29T12:51:52;98588.56;;;11.09;52.42
61205;BME280;47068;55.780;37.520;2024-03-29T12:54:20;98590.41;;;11.08;51.95
61205;BME280;47068;55.780;37.520;2024-03-29T12:56:46;98584.06;;;11.09;52.07